sensor_id;sensor_type;location;lat;lon;timestamp;pressure;altitude;pressure_sealevel;temperature;humidity
68456;BME280;55437;55.046;38.838;2023-06-19T00:01:37;100099.88;;;14.80;51.49
68456;BME280;55437;55.046;38.838;2023-06-19T00:04:04;100101.69;;;14.78;51.40
68456;BME280;55437;55.046;38.838;2023-06-19T00:06:31;100101.81;;;14.75;51.48
68456;BME280;55437;55.046;38.838;2023-06-19T00:08:58;100103.66;;;14.73;51.73
68456;BME280;55437;55.046;38.838;2023-06-19T00:11:25;100104.03;;;14.64;51.65
68456;BME280;55437;55.046;38.838;2023-06-19T00:13:51;100104.03;;;14.64;51.75
68456;BME280;55437;55.046;38.838;2023-06-19T00:16:18;100110.09;;;14.63;52.00
68456;BME280;55437;55.046;38.838;2023-06-19T00:18:45;100099.94;;;14.60;52.19
68456;BME280;55437;55.046;38.838;2023-06-19T00:21:12;100101.72;;;14.58;51.97
68456;BME280;55437;55.046;38.838;2023-06-19T00:23:38;100104.50;;;14.53;52.15
68456;BME280;55437;55.046;38.838;2023-06-19T00:26:05;100100.47;;;14.48;52.10
68456;BME280;55437;55.046;38.838;2023-06-19T00:28:32;100101.44;;;14.45;52.06
68456;BME280;55437;55.046;38.838;2023-06-19T00:31:00;100110.88;;;14.46;52.42
68456;BME280;55437;55.046;38.838;2023-06-19T00:33:27;100112.47;;;14.49;52.15
68456;BME280;55437;55.046;38.838;2023-06-19T00:35:55;100108.06;;;14.51;52.42
68456;BME280;55437;55.046;38.838;2023-06-19T00:38:21;100105.53;;;14.49;52.39
68456;BME280;55437;55.046;38.838;2023-06-19T00:40:48;100108.97;;;14.50;52.38
68456;BME280;55437;55.046;38.838;2023-06-19T00:43:14;100102.28;;;14.46;52.39
68456;BME280;55437;55.046;38.838;2023-06-19T00:45:41;100103.47;;;14.37;52.73
68456;BME280;55437;55.046;38.838;2023-06-19T00:48:08;100101.09;;;14.32;52.70
68456;BME280;55437;55.046;38.838;2023-06-19T00:50:35;100094.25;;;14.31;52.78
68456;BME280;55437;55.046;38.838;2023-06-19T00:53:03;100098.28;;;14.37;52.55
68456;BME280;55437;55.046;38.838;2023-06-19T00:55:32;100092.19;;;14.39;52.39
68456;BME280;55437;55.046;38.838;2023-06-19T00:58:00;100100.59;;;14.45;52.32
68456;BME280;55437;55.046;38.838;2023-06-19T01:00:27;100101.44;;;14.45;52.23
68456;BME280;55437;55.046;38.838;2023-06-19T01:02:54;100104.78;;;14.47;52.17
68456;BME280;55437;55.046;38.838;2023-06-19T01:05:21;100104.56;;;14.52;52.08
68456;BME280;55437;55.046;38.838;2023-06-19T01:10:57;100107.22;;;14.50;52.24
68456;BME280;55437;55.046;38.838;2023-06-19T01:13:41;100111.75;;;14.45;52.36
68456;BME280;55437;55.046;38.838;2023-06-19T01:16:10;100117.84;;;14.44;52.61
68456;BME280;55437;55.046;38.838;2023-06-19T01:18:37;100116.09;;;14.45;52.43
68456;BME280;55437;55.046;38.838;2023-06-19T01:21:13;100116.81;;;14.48;52.42
68456;BME280;55437;55.046;38.838;2023-06-19T01:23:39;100116.59;;;14.53;52.36
68456;BME280;55437;55.046;38.838;2023-06-19T01:26:09;100116.47;;;14.56;52.12
68456;BME280;55437;55.046;38.838;2023-06-19T01:28:42;100119.59;;;14.62;52.07
68456;BME280;55437;55.046;38.838;2023-06-19T01:31:35;100116.41;;;14.76;51.81
68456;BME280;55437;55.046;38.838;2023-06-19T01:34:06;100117.31;;;15.12;51.10
68456;BME280;55437;55.046;38.838;2023-06-19T01:36:35;100116.56;;;15.29;50.54
68456;BME280;55437;55.046;38.838;2023-06-19T01:39:17;100118.81;;;15.18;50.70
68456;BME280;55437;55.046;38.838;2023-06-19T01:41:45;100119.59;;;15.20;50.74
68456;BME280;55437;55.046;38.838;2023-06-19T01:44:12;100124.72;;;15.39;50.33
68456;BME280;55437;55.046;38.838;2023-06-19T01:46:39;100123.59;;;15.63;49.68
68456;BME280;55437;55.046;38.838;2023-06-19T01:49:07;100129.81;;;15.59;49.88
68456;BME280;55437;55.046;38.838;2023-06-19T01:51:34;100118.56;;;15.95;48.68
68456;BME280;55437;55.046;38.838;2023-06-19T01:54:01;100128.94;;;16.12;48.81
68456;BME280;55437;55.046;38.838;2023-06-19T01:56:28;100137.03;;;16.23;48.36
68456;BME280;55437;55.046;38.838;2023-06-19T01:58:55;100132.34;;;16.47;47.88
68456;BME280;55437;55.046;38.838;2023-06-19T02:01:22;100136.31;;;16.54;47.63
68456;BME280;55437;55.046;38.838;2023-06-19T02:03:48;100130.72;;;16.62;47.40
68456;BME280;55437;55.046;38.838;2023-06-19T02:06:14;100147.91;;;16.64;47.40
68456;BME280;55437;55.046;38.838;2023-06-19T02:08:41;100141.41;;;16.55;47.53
68456;BME280;55437;55.046;38.838;2023-06-19T02:11:11;100140.84;;;16.83;46.63
68456;BME280;55437;55.046;38.838;2023-06-19T02:13:38;100135.78;;;17.13;45.88
68456;BME280;55437;55.046;38.838;2023-06-19T02:16:05;100142.38;;;17.19;45.99
68456;BME280;55437;55.046;38.838;2023-06-19T02:18:32;100129.97;;;17.40;45.41
68456;BME280;55437;55.046;38.838;2023-06-19T02:20:59;100142.22;;;17.69;44.76
68456;BME280;55437;55.046;38.838;2023-06-19T02:23:24;100133.56;;;18.28;43.96
68456;BME280;55437;55.046;38.838;2023-06-19T02:25:51;100138.09;;;18.25;43.71
68456;BME280;55437;55.046;38.838;2023-06-19T02:28:17;100128.22;;;18.46;43.38
68456;BME280;55437;55.046;38.838;2023-06-19T02:30:43;100130.53;;;18.50;43.14
68456;BME280;55437;55.046;38.838;2023-06-19T02:33:09;100133.25;;;18.91;42.20
68456;BME280;55437;55.046;38.838;2023-06-19T02:35:34;100132.41;;;19.05;41.46
68456;BME280;55437;55.046;38.838;2023-06-19T02:38:00;100129.16;;;18.87;41.92
68456;BME280;55437;55.046;38.838;2023-06-19T02:40:26;100127.13;;;19.06;41.40
68456;BME280;55437;55.046;38.838;2023-06-19T02:42:53;100127.34;;;19.57;40.38
68456;BME280;55437;55.046;38.838;2023-06-19T02:45:20;100135.44;;;19.67;40.40
68456;BME280;55437;55.046;38.838;2023-06-19T02:47:47;100139.81;;;19.66;40.38
68456;BME280;55437;55.046;38.838;2023-06-19T02:50:13;100139.03;;;19.37;40.69
68456;BME280;55437;55.046;38.838;2023-06-19T02:52:39;100136.84;;;19.98;39.62
68456;BME280;55437;55.046;38.838;2023-06-19T02:55:05;100134.19;;;20.12;38.99
68456;BME280;55437;55.046;38.838;2023-06-19T02:57:33;100134.00;;;20.28;39.15
68456;BME280;55437;55.046;38.838;2023-06-19T02:59:59;100137.50;;;21.03;37.65
68456;BME280;55437;55.046;38.838;2023-06-19T03:02:26;100127.06;;;21.63;36.66
68456;BME280;55437;55.046;38.838;2023-06-19T03:04:52;100126.66;;;21.69;35.90
68456;BME280;55437;55.046;38.838;2023-06-19T03:07:18;100122.66;;;22.22;35.40
68456;BME280;55437;55.046;38.838;2023-06-19T03:09:44;100121.69;;;22.81;34.59
68456;BME280;55437;55.046;38.838;2023-06-19T03:12:11;100129.50;;;23.14;33.72
68456;BME280;55437;55.046;38.838;2023-06-19T03:14:37;100129.41;;;23.59;33.36
68456;BME280;55437;55.046;38.838;2023-06-19T03:17:03;100125.66;;;23.73;32.44
68456;BME280;55437;55.046;38.838;2023-06-19T03:19:30;100131.44;;;23.55;32.23
68456;BME280;55437;55.046;38.838;2023-06-19T03:21:56;100126.34;;;23.31;32.40
68456;BME280;55437;55.046;38.838;2023-06-19T03:24:22;100125.34;;;23.55;32.26
68456;BME280;55437;55.046;38.838;2023-06-19T03:26:50;100120.84;;;24.51;31.17
68456;BME280;55437;55.046;38.838;2023-06-19T03:29:16;100119.56;;;25.16;30.43
68456;BME280;55437;55.046;38.838;2023-06-19T03:31:55;100122.38;;;25.53;29.53
68456;BME280;55437;55.046;38.838;2023-06-19T03:34:25;100132.06;;;26.01;28.88
68456;BME280;55437;55.046;38.838;2023-06-19T03:36:52;100132.84;;;26.49;28.26
68456;BME280;55437;55.046;38.838;2023-06-19T03:39:20;100127.31;;;26.43;28.17
68456;BME280;55437;55.046;38.838;2023-06-19T03:41:47;100132.47;;;26.72;27.90
68456;BME280;55437;55.046;38.838;2023-06-19T03:44:13;100136.06;;;26.24;27.87
68456;BME280;55437;55.046;38.838;2023-06-19T03:46:57;100137.34;;;26.20;27.76
68456;BME280;55437;55.046;38.838;2023-06-19T03:49:23;100133.56;;;26.23;27.80
68456;BME280;55437;55.046;38.838;2023-06-19T03:51:50;100129.13;;;26.42;27.49
68456;BME280;55437;55.046;38.838;2023-06-19T03:54:16;100129.97;;;26.24;27.33
68456;BME280;55437;55.046;38.838;2023-06-19T03:56:43;100130.84;;;25.76;27.87
68456;BME280;55437;55.046;38.838;2023-06-19T03:59:09;100140.75;;;25.34;28.50
68456;BME280;55437;55.046;38.838;2023-06-19T04:01:35;100138.41;;;24.60;29.34
68456;BME280;55437;55.046;38.838;2023-06-19T04:04:01;100125.25;;;24.51;29.66
68456;BME280;55437;55.046;38.838;2023-06-19T04:06:27;100133.97;;;24.30;29.74
68456;BME280;55437;55.046;38.838;2023-06-19T04:08:53;100134.72;;;24.21;30.08
68456;BME280;55437;55.046;38.838;2023-06-19T04:11:19;100137.63;;;24.39;30.07
68456;BME280;55437;55.046;38.838;2023-06-19T04:13:46;100137.81;;;24.26;30.24
68456;BME280;55437;55.046;38.838;2023-06-19T04:16:12;100132.22;;;24.61;29.90
68456;BME280;55437;55.046;38.838;2023-06-19T04:18:38;100131.91;;;25.35;29.14
68456;BME280;55437;55.046;38.838;2023-06-19T04:21:04;100127.38;;;26.04;28.24
68456;BME280;55437;55.046;38.838;2023-06-19T04:23:31;100127.09;;;26.64;27.37
68456;BME280;55437;55.046;38.838;2023-06-19T04:25:57;100135.06;;;26.81;27.39
68456;BME280;55437;55.046;38.838;2023-06-19T04:28:23;100142.13;;;26.81;27.27
68456;BME280;55437;55.046;38.838;2023-06-19T04:30:49;100143.88;;;26.63;27.31
68456;BME280;55437;55.046;38.838;2023-06-19T04:33:15;100138.16;;;26.01;27.89
68456;BME280;55437;55.046;38.838;2023-06-19T04:35:40;100140.47;;;25.37;28.44
68456;BME280;55437;55.046;38.838;2023-06-19T04:38:07;100147.94;;;25.22;28.89
68456;BME280;55437;55.046;38.838;2023-06-19T04:40:33;100145.31;;;25.32;28.95
68456;BME280;55437;55.046;38.838;2023-06-19T04:43:00;100144.72;;;25.19;28.97
68456;BME280;55437;55.046;38.838;2023-06-19T04:45:45;100147.94;;;25.22;28.81
68456;BME280;55437;55.046;38.838;2023-06-19T04:48:11;100143.41;;;25.34;28.81
68456;BME280;55437;55.046;38.838;2023-06-19T04:50:37;100143.28;;;25.55;28.65
68456;BME280;55437;55.046;38.838;2023-06-19T04:53:03;100137.34;;;26.01;28.35
68456;BME280;55437;55.046;38.838;2023-06-19T04:55:29;100131.47;;;26.26;28.15
68456;BME280;55437;55.046;38.838;2023-06-19T04:57:56;100146.97;;;26.48;27.46
68456;BME280;55437;55.046;38.838;2023-06-19T05:00:21;100140.06;;;26.38;27.40
68456;BME280;55437;55.046;38.838;2023-06-19T05:02:49;100139.28;;;26.28;27.55
68456;BME280;55437;55.046;38.838;2023-06-19T05:05:16;100138.09;;;26.49;27.35
68456;BME280;55437;55.046;38.838;2023-06-19T05:07:42;100133.41;;;26.34;27.29
68456;BME280;55437;55.046;38.838;2023-06-19T05:10:10;100137.53;;;26.46;27.30
68456;BME280;55437;55.046;38.838;2023-06-19T05:12:36;100134.69;;;26.20;27.51
68456;BME280;55437;55.046;38.838;2023-06-19T05:15:03;100134.59;;;25.93;27.70
68456;BME280;55437;55.046;38.838;2023-06-19T05:17:31;100138.47;;;25.89;27.75
68456;BME280;55437;55.046;38.838;2023-06-19T05:19:57;100133.19;;;25.98;27.50
68456;BME280;55437;55.046;38.838;2023-06-19T05:22:23;100134.25;;;25.38;27.75
68456;BME280;55437;55.046;38.838;2023-06-19T05:24:49;100130.66;;;25.29;28.05
68456;BME280;55437;55.046;38.838;2023-06-19T05:27:15;100136.28;;;25.15;28.39
68456;BME280;55437;55.046;38.838;2023-06-19T05:29:41;100130.56;;;25.00;28.35
68456;BME280;55437;55.046;38.838;2023-06-19T05:32:07;100134.06;;;24.80;28.78
68456;BME280;55437;55.046;38.838;2023-06-19T05:34:33;100126.28;;;24.69;28.94
68456;BME280;55437;55.046;38.838;2023-06-19T05:36:59;100126.81;;;24.63;28.99
68456;BME280;55437;55.046;38.838;2023-06-19T05:39:26;100135.75;;;24.91;28.98
68456;BME280;55437;55.046;38.838;2023-06-19T05:41:52;100130.91;;;25.26;28.59
68456;BME280;55437;55.046;38.838;2023-06-19T05:44:18;100132.38;;;26.07;27.47
68456;BME280;55437;55.046;38.838;2023-06-19T05:46:44;100128.09;;;26.90;26.76
68456;BME280;55437;55.046;38.838;2023-06-19T05:49:10;100126.06;;;27.11;26.68
68456;BME280;55437;55.046;38.838;2023-06-19T05:51:36;100128.41;;;27.14;26.54
68456;BME280;55437;55.046;38.838;2023-06-19T05:54:02;100128.47;;;27.05;26.51
68456;BME280;55437;55.046;38.838;2023-06-19T06:02:01;100129.19;;;27.24;26.09
68456;BME280;55437;55.046;38.838;2023-06-19T06:04:29;100129.13;;;27.52;25.32
68456;BME280;55437;55.046;38.838;2023-06-19T06:06:56;100131.75;;;28.05;24.76
68456;BME280;55437;55.046;38.838;2023-06-19T06:09:22;100126.50;;;27.87;24.85
68456;BME280;55437;55.046;38.838;2023-06-19T06:11:48;100121.13;;;27.97;24.75
68456;BME280;55437;55.046;38.838;2023-06-19T06:14:14;100140.97;;;28.01;24.32
68456;BME280;55437;55.046;38.838;2023-06-19T06:19:45;100126.16;;;28.08;24.05
68456;BME280;55437;55.046;38.838;2023-06-19T06:22:11;100128.66;;;28.10;24.07
68456;BME280;55437;55.046;38.838;2023-06-19T06:24:36;100132.81;;;28.38;23.88
68456;BME280;55437;55.046;38.838;2023-06-19T06:27:21;100130.16;;;28.12;22.97
68456;BME280;55437;55.046;38.838;2023-06-19T06:30:05;100132.97;;;27.93;22.88
68456;BME280;55437;55.046;38.838;2023-06-19T06:32:36;100124.66;;;28.06;23.02
68456;BME280;55437;55.046;38.838;2023-06-19T06:35:02;100125.78;;;28.21;23.14
68456;BME280;55437;55.046;38.838;2023-06-19T06:37:32;100121.88;;;28.59;22.93
68456;BME280;55437;55.046;38.838;2023-06-19T06:40:17;100125.22;;;29.03;22.72
68456;BME280;55437;55.046;38.838;2023-06-19T06:42:44;100130.44;;;28.87;22.45
68456;BME280;55437;55.046;38.838;2023-06-19T06:45:10;100127.03;;;28.94;22.16
68456;BME280;55437;55.046;38.838;2023-06-19T06:50:20;100116.16;;;28.72;22.36
68456;BME280;55437;55.046;38.838;2023-06-19T06:52:46;100121.94;;;28.75;22.13
68456;BME280;55437;55.046;38.838;2023-06-19T06:55:12;100114.94;;;28.84;21.65
68456;BME280;55437;55.046;38.838;2023-06-19T06:57:38;100117.41;;;28.85;22.06
68456;BME280;55437;55.046;38.838;2023-06-19T07:00:04;100109.84;;;28.64;22.07
68456;BME280;55437;55.046;38.838;2023-06-19T07:05:17;100109.16;;;28.28;22.63
68456;BME280;55437;55.046;38.838;2023-06-19T07:07:43;100105.72;;;28.96;22.00
68456;BME280;55437;55.046;38.838;2023-06-19T07:10:09;100114.53;;;29.21;21.82
68456;BME280;55437;55.046;38.838;2023-06-19T07:12:35;100101.91;;;28.98;22.03
68456;BME280;55437;55.046;38.838;2023-06-19T07:15:01;100101.75;;;29.00;22.17
68456;BME280;55437;55.046;38.838;2023-06-19T07:17:30;100111.72;;;29.14;21.90
68456;BME280;55437;55.046;38.838;2023-06-19T07:19:56;100104.84;;;29.37;22.04
68456;BME280;55437;55.046;38.838;2023-06-19T07:22:22;100108.69;;;29.67;22.04
68456;BME280;55437;55.046;38.838;2023-06-19T07:24:47;100106.50;;;29.87;21.91
68456;BME280;55437;55.046;38.838;2023-06-19T07:27:13;100103.53;;;29.90;21.49
68456;BME280;55437;55.046;38.838;2023-06-19T07:29:39;100101.41;;;30.02;21.42
68456;BME280;55437;55.046;38.838;2023-06-19T07:32:05;100097.75;;;29.87;21.40
68456;BME280;55437;55.046;38.838;2023-06-19T07:34:32;100100.91;;;30.06;21.14
68456;BME280;55437;55.046;38.838;2023-06-19T07:36:58;100110.16;;;29.54;21.54
68456;BME280;55437;55.046;38.838;2023-06-19T07:39:23;100092.78;;;29.76;21.48
68456;BME280;55437;55.046;38.838;2023-06-19T07:41:49;100091.63;;;29.62;21.64
68456;BME280;55437;55.046;38.838;2023-06-19T07:44:15;100090.63;;;29.71;22.02
68456;BME280;55437;55.046;38.838;2023-06-19T07:46:43;100089.09;;;29.28;22.08
68456;BME280;55437;55.046;38.838;2023-06-19T07:49:09;100087.75;;;28.40;22.35
68456;BME280;55437;55.046;38.838;2023-06-19T07:51:35;100087.09;;;28.72;22.38
68456;BME280;55437;55.046;38.838;2023-06-19T07:54:01;100096.19;;;29.27;22.16
68456;BME280;55437;55.046;38.838;2023-06-19T07:56:27;100096.66;;;29.15;21.86
68456;BME280;55437;55.046;38.838;2023-06-19T07:58:54;100099.75;;;28.86;21.94
68456;BME280;55437;55.046;38.838;2023-06-19T08:01:20;100092.13;;;28.83;21.81
68456;BME280;55437;55.046;38.838;2023-06-19T08:03:46;100091.41;;;28.73;21.87
68456;BME280;55437;55.046;38.838;2023-06-19T08:06:11;100085.84;;;28.50;22.13
68456;BME280;55437;55.046;38.838;2023-06-19T08:08:37;100087.13;;;28.38;22.55
68456;BME280;55437;55.046;38.838;2023-06-19T08:11:03;100082.56;;;28.22;22.49
68456;BME280;55437;55.046;38.838;2023-06-19T08:13:29;100084.91;;;28.59;22.39
68456;BME280;55437;55.046;38.838;2023-06-19T08:15:54;100096.34;;;28.76;22.07
68456;BME280;55437;55.046;38.838;2023-06-19T08:18:20;100084.72;;;28.26;21.99
68456;BME280;55437;55.046;38.838;2023-06-19T08:20:46;100082.03;;;28.18;22.01
68456;BME280;55437;55.046;38.838;2023-06-19T08:23:12;100083.25;;;28.06;21.68
68456;BME280;55437;55.046;38.838;2023-06-19T08:25:38;100094.50;;;27.90;22.33
68456;BME280;55437;55.046;38.838;2023-06-19T08:28:03;100079.88;;;27.96;22.07
68456;BME280;55437;55.046;38.838;2023-06-19T08:30:32;100079.69;;;27.89;22.33
68456;BME280;55437;55.046;38.838;2023-06-19T08:33:00;100077.84;;;27.64;22.69
68456;BME280;55437;55.046;38.838;2023-06-19T08:35:26;100075.41;;;27.53;23.00
68456;BME280;55437;55.046;38.838;2023-06-19T08:37:52;100082.25;;;27.46;23.08
68456;BME280;55437;55.046;38.838;2023-06-19T08:40:37;100071.16;;;27.78;23.91
68456;BME280;55437;55.046;38.838;2023-06-19T08:43:02;100069.28;;;27.88;23.10
68456;BME280;55437;55.046;38.838;2023-06-19T08:45:29;100063.56;;;27.75;23.01
68456;BME280;55437;55.046;38.838;2023-06-19T08:47:59;100063.50;;;27.13;22.92
68456;BME280;55437;55.046;38.838;2023-06-19T08:50:26;100060.06;;;26.48;23.48
68456;BME280;55437;55.046;38.838;2023-06-19T08:52:51;100066.19;;;25.93;23.92
68456;BME280;55437;55.046;38.838;2023-06-19T08:58:23;100052.88;;;25.36;25.02
68456;BME280;55437;55.046;38.838;2023-06-19T09:01:08;100051.53;;;25.32;25.09
68456;BME280;55437;55.046;38.838;2023-06-19T09:03:34;100065.06;;;25.08;25.17
68456;BME280;55437;55.046;38.838;2023-06-19T09:06:07;100058.72;;;24.71;24.70
68456;BME280;55437;55.046;38.838;2023-06-19T09:08:58;100063.06;;;24.51;25.11
68456;BME280;55437;55.046;38.838;2023-06-19T09:14:10;100047.97;;;24.44;25.88
68456;BME280;55437;55.046;38.838;2023-06-19T09:16:40;100052.84;;;24.27;25.51
68456;BME280;55437;55.046;38.838;2023-06-19T09:22:09;100042.88;;;24.21;25.51
68456;BME280;55437;55.046;38.838;2023-06-19T09:24:40;100039.25;;;24.13;23.91
68456;BME280;55437;55.046;38.838;2023-06-19T09:27:10;100045.00;;;24.06;23.61
68456;BME280;55437;55.046;38.838;2023-06-19T09:29:43;100040.28;;;23.80;23.33
68456;BME280;55437;55.046;38.838;2023-06-19T09:35:21;100039.50;;;23.36;22.78
68456;BME280;55437;55.046;38.838;2023-06-19T09:37:54;100039.59;;;23.46;23.69
68456;BME280;55437;55.046;38.838;2023-06-19T09:40:21;100036.72;;;23.49;23.75
68456;BME280;55437;55.046;38.838;2023-06-19T09:42:48;100036.84;;;23.47;24.06
68456;BME280;55437;55.046;38.838;2023-06-19T09:45:26;100036.22;;;23.55;24.61
68456;BME280;55437;55.046;38.838;2023-06-19T09:48:14;100028.69;;;23.82;24.59
68456;BME280;55437;55.046;38.838;2023-06-19T09:50:51;100026.06;;;23.82;24.21
68456;BME280;55437;55.046;38.838;2023-06-19T09:53:39;100020.88;;;23.92;24.80
68456;BME280;55437;55.046;38.838;2023-06-19T09:56:06;100015.13;;;23.98;25.01
68456;BME280;55437;55.046;38.838;2023-06-19T09:58:34;100019.81;;;23.94;24.74
68456;BME280;55437;55.046;38.838;2023-06-19T10:01:00;100018.66;;;23.87;25.02
68456;BME280;55437;55.046;38.838;2023-06-19T10:03:45;100017.69;;;23.67;24.62
68456;BME280;55437;55.046;38.838;2023-06-19T10:06:16;100025.31;;;23.18;25.20
68456;BME280;55437;55.046;38.838;2023-06-19T10:08:44;100019.13;;;23.08;25.57
68456;BME280;55437;55.046;38.838;2023-06-19T10:11:44;100010.19;;;23.10;25.10
68456;BME280;55437;55.046;38.838;2023-06-19T10:14:10;100009.38;;;23.10;24.77
68456;BME280;55437;55.046;38.838;2023-06-19T10:16:36;100004.63;;;23.04;25.00
68456;BME280;55437;55.046;38.838;2023-06-19T10:19:11;100010.16;;;22.89;24.77
68456;BME280;55437;55.046;38.838;2023-06-19T10:24:49;100005.78;;;22.79;25.68
68456;BME280;55437;55.046;38.838;2023-06-19T10:27:37;100000.16;;;22.83;25.83
68456;BME280;55437;55.046;38.838;2023-06-19T10:30:40;99995.19;;;22.80;25.26
68456;BME280;55437;55.046;38.838;2023-06-19T10:33:06;99999.81;;;22.77;25.72
68456;BME280;55437;55.046;38.838;2023-06-19T10:35:40;99996.69;;;22.72;25.84
68456;BME280;55437;55.046;38.838;2023-06-19T10:38:09;99996.69;;;22.72;26.34
68456;BME280;55437;55.046;38.838;2023-06-19T10:40:37;100001.69;;;22.75;26.69
68456;BME280;55437;55.046;38.838;2023-06-19T10:43:40;99996.34;;;22.87;26.70
68456;BME280;55437;55.046;38.838;2023-06-19T10:46:06;99988.91;;;23.04;26.89
68456;BME280;55437;55.046;38.838;2023-06-19T10:48:32;99984.00;;;23.10;26.88
68456;BME280;55437;55.046;38.838;2023-06-19T10:53:42;99987.69;;;23.08;27.11
68456;BME280;55437;55.046;38.838;2023-06-19T10:56:07;99987.16;;;23.25;27.61
68456;BME280;55437;55.046;38.838;2023-06-19T10:58:33;99987.22;;;23.34;26.81
68456;BME280;55437;55.046;38.838;2023-06-19T11:01:18;99985.63;;;23.22;26.19
68456;BME280;55437;55.046;38.838;2023-06-19T11:03:45;99989.47;;;23.07;25.94
68456;BME280;55437;55.046;38.838;2023-06-19T11:06:30;99988.00;;;22.93;26.06
68456;BME280;55437;55.046;38.838;2023-06-19T11:08:56;99984.88;;;22.99;26.20
68456;BME280;55437;55.046;38.838;2023-06-19T11:11:22;99983.81;;;23.02;26.44
68456;BME280;55437;55.046;38.838;2023-06-19T11:14:06;99982.81;;;23.14;26.71
68456;BME280;55437;55.046;38.838;2023-06-19T11:16:51;99977.16;;;23.30;26.56
68456;BME280;55437;55.046;38.838;2023-06-19T11:19:36;99976.72;;;23.14;25.99
68456;BME280;55437;55.046;38.838;2023-06-19T11:22:05;99971.78;;;22.99;25.77
68456;BME280;55437;55.046;38.838;2023-06-19T11:24:33;99960.03;;;22.94;25.96
68456;BME280;55437;55.046;38.838;2023-06-19T11:27:19;99965.41;;;22.92;26.53
68456;BME280;55437;55.046;38.838;2023-06-19T11:29:55;99960.03;;;22.94;26.40
68456;BME280;55437;55.046;38.838;2023-06-19T11:32:22;99961.81;;;22.93;25.78
68456;BME280;55437;55.046;38.838;2023-06-19T11:37:56;99952.69;;;23.09;27.18
68456;BME280;55437;55.046;38.838;2023-06-19T11:40:22;99950.34;;;23.26;26.89
68456;BME280;55437;55.046;38.838;2023-06-19T11:42:53;99948.50;;;23.38;26.42
68456;BME280;55437;55.046;38.838;2023-06-19T11:45:19;99958.72;;;23.20;26.13
68456;BME280;55437;55.046;38.838;2023-06-19T11:47:45;99960.19;;;23.13;26.18
68456;BME280;55437;55.046;38.838;2023-06-19T11:50:13;99958.09;;;22.96;25.74
68456;BME280;55437;55.046;38.838;2023-06-19T11:52:43;99954.97;;;22.81;26.02
68456;BME280;55437;55.046;38.838;2023-06-19T11:57:57;99946.28;;;22.58;25.66
68456;BME280;55437;55.046;38.838;2023-06-19T12:00:23;99935.69;;;22.60;26.12
68456;BME280;55437;55.046;38.838;2023-06-19T12:05:34;99928.25;;;22.44;25.66
68456;BME280;55437;55.046;38.838;2023-06-19T12:07:59;99928.97;;;22.35;25.80
68456;BME280;55437;55.046;38.838;2023-06-19T12:10:47;99924.81;;;22.33;25.45
68456;BME280;55437;55.046;38.838;2023-06-19T12:13:14;99920.31;;;22.23;25.37
68456;BME280;55437;55.046;38.838;2023-06-19T12:15:40;99911.16;;;22.29;25.49
68456;BME280;55437;55.046;38.838;2023-06-19T12:18:06;99911.75;;;22.33;25.66
68456;BME280;55437;55.046;38.838;2023-06-19T12:20:33;99917.81;;;22.33;25.86
68456;BME280;55437;55.046;38.838;2023-06-19T12:22:59;99917.66;;;22.35;26.02
68456;BME280;55437;55.046;38.838;2023-06-19T12:25:25;99907.91;;;22.37;26.23
68456;BME280;55437;55.046;38.838;2023-06-19T12:30:36;99908.38;;;22.42;25.78
68456;BME280;55437;55.046;38.838;2023-06-19T12:33:03;99908.28;;;22.43;26.09
68456;BME280;55437;55.046;38.838;2023-06-19T12:35:29;99908.84;;;22.47;25.73
68456;BME280;55437;55.046;38.838;2023-06-19T12:37:55;99897.94;;;22.42;25.80
68456;BME280;55437;55.046;38.838;2023-06-19T12:40:21;99911.88;;;22.31;25.35
68456;BME280;55437;55.046;38.838;2023-06-19T12:42:47;99900.56;;;22.31;25.61
68456;BME280;55437;55.046;38.838;2023-06-19T12:45:52;99899.63;;;22.32;25.49
68456;BME280;55437;55.046;38.838;2023-06-19T12:51:21;99908.78;;;22.26;25.79
68456;BME280;55437;55.046;38.838;2023-06-19T12:53:47;99900.31;;;22.22;25.44
68456;BME280;55437;55.046;38.838;2023-06-19T12:56:32;99901.88;;;22.25;26.32
68456;BME280;55437;55.046;38.838;2023-06-19T13:01:42;99898.69;;;22.21;26.21
68456;BME280;55437;55.046;38.838;2023-06-19T13:04:27;99883.69;;;22.12;26.50
68456;BME280;55437;55.046;38.838;2023-06-19T13:06:53;99878.13;;;22.06;26.68
68456;BME280;55437;55.046;38.838;2023-06-19T13:09:37;99883.72;;;22.01;27.24
68456;BME280;55437;55.046;38.838;2023-06-19T13:12:23;99876.34;;;22.06;26.98
68456;BME280;55437;55.046;38.838;2023-06-19T13:15:08;99870.19;;;22.07;26.95
68456;BME280;55437;55.046;38.838;2023-06-19T13:17:34;99874.22;;;22.00;26.70
68456;BME280;55437;55.046;38.838;2023-06-19T13:20:00;99872.88;;;21.95;26.41
68456;BME280;55437;55.046;38.838;2023-06-19T13:22:26;99874.66;;;21.94;26.93
68456;BME280;55437;55.046;38.838;2023-06-19T13:25:30;99879.66;;;21.97;26.96
68456;BME280;55437;55.046;38.838;2023-06-19T13:28:16;99875.50;;;21.95;27.16
68456;BME280;55437;55.046;38.838;2023-06-19T13:31:01;99871.34;;;21.92;26.95
68456;BME280;55437;55.046;38.838;2023-06-19T13:33:27;99875.38;;;21.96;27.07
68456;BME280;55437;55.046;38.838;2023-06-19T13:39:17;99862.41;;;22.17;27.31
68456;BME280;55437;55.046;38.838;2023-06-19T13:41:46;99879.19;;;22.14;27.21
68456;BME280;55437;55.046;38.838;2023-06-19T13:44:12;99855.66;;;22.14;27.83
68456;BME280;55437;55.046;38.838;2023-06-19T13:46:38;99852.06;;;22.26;27.93
68456;BME280;55437;55.046;38.838;2023-06-19T13:49:04;99851.84;;;22.18;27.58